createdAt,value
2018-04-26T00:02:07.890Z,59.00
2018-04-26T00:04:35.509Z,59.10
2018-04-26T00:07:03.086Z,59.60
2018-04-26T00:09:30.687Z,59.10
2018-04-26T00:11:58.287Z,59.40
2018-04-26T00:14:25.855Z,60.20
2018-04-26T00:16:53.431Z,61.80
2018-04-26T00:19:20.991Z,61.50
2018-04-26T00:21:48.598Z,61.10
2018-04-26T00:24:16.146Z,60.80
2018-04-26T00:26:43.720Z,60.80
2018-04-26T00:29:11.327Z,61.20
2018-04-26T00:31:38.871Z,61.70
2018-04-26T00:34:06.474Z,63.00
2018-04-26T00:36:34.086Z,65.90
2018-04-26T00:39:01.633Z,74.50
2018-04-26T00:41:29.177Z,77.00
2018-04-26T00:43:56.790Z,78.60
2018-04-26T00:46:24.353Z,77.00
2018-04-26T00:48:52.726Z,85.30
2018-04-26T00:51:33.008Z,83.60
2018-04-26T00:54:00.616Z,82.70
2018-04-26T00:56:28.158Z,83.30
2018-04-26T00:58:55.725Z,83.60
2018-04-26T01:01:23.299Z,85.10
2018-04-26T01:03:50.909Z,86.60
2018-04-26T01:06:18.488Z,79.50
2018-04-26T01:08:46.054Z,77.60
2018-04-26T01:11:13.619Z,78.40
2018-04-26T01:13:41.194Z,79.40
2018-04-26T01:16:08.803Z,79.50
2018-04-26T01:18:36.389Z,80.00
2018-04-26T01:21:03.963Z,81.10
2018-04-26T01:23:31.524Z,82.10
2018-04-26T01:25:59.124Z,82.00
2018-04-26T01:28:26.760Z,82.30
2018-04-26T01:30:54.304Z,80.60
2018-04-26T01:33:21.855Z,82.00
2018-04-26T01:35:49.460Z,80.30
2018-04-26T01:38:17.852Z,75.90
2018-04-26T01:40:45.525Z,75.80
2018-04-26T01:43:13.935Z,77.40
2018-04-26T01:45:41.505Z,75.40
2018-04-26T01:48:09.079Z,77.90
2018-04-26T01:50:36.683Z,83.10
2018-04-26T01:53:04.375Z,82.20
2018-04-26T01:55:31.940Z,80.80
2018-04-26T01:57:59.504Z,80.40
2018-04-26T02:00:27.128Z,76.30
2018-04-26T02:02:54.683Z,73.20
2018-04-26T02:05:22.271Z,72.90
2018-04-26T02:07:49.867Z,72.80
2018-04-26T02:10:17.451Z,73.50
2018-04-26T02:12:45.064Z,72.20
2018-04-26T02:15:12.697Z,72.20
2018-04-26T02:17:40.231Z,72.70
2018-04-26T02:20:07.799Z,72.90
2018-04-26T02:22:35.400Z,75.30
2018-04-26T02:25:02.995Z,76.20
2018-04-26T02:27:30.562Z,77.20
2018-04-26T02:29:58.126Z,77.30
2018-04-26T02:32:25.700Z,76.60
2018-04-26T02:34:53.303Z,75.20
2018-04-26T02:37:20.898Z,76.60
2018-04-26T02:39:48.514Z,76.40
2018-04-26T02:42:16.091Z,75.50
2018-04-26T02:44:43.635Z,78.60
2018-04-26T02:47:11.198Z,78.80
2018-04-26T02:49:38.782Z,80.00
2018-04-26T02:52:07.184Z,77.70
2018-04-26T02:54:34.750Z,77.70
2018-04-26T02:57:02.327Z,75.50
2018-04-26T02:59:29.915Z,75.90
2018-04-26T03:01:57.514Z,75.50
2018-04-26T03:04:25.102Z,75.80
2018-04-26T03:06:52.741Z,75.20
2018-04-26T03:09:20.318Z,74.20
2018-04-26T03:11:47.922Z,76.20
2018-04-26T03:14:15.500Z,75.30
2018-04-26T03:16:43.088Z,73.80
2018-04-26T03:19:10.643Z,73.40
2018-04-26T03:21:38.276Z,73.20
2018-04-26T03:24:05.836Z,74.00
2018-04-26T03:26:34.230Z,74.50
2018-04-26T03:29:01.800Z,74.40
2018-04-26T03:31:29.360Z,75.90
2018-04-26T03:33:56.935Z,76.70
2018-04-26T03:36:24.507Z,77.90
2018-04-26T03:38:52.043Z,76.80
2018-04-26T03:41:19.579Z,77.80
2018-04-26T03:43:47.240Z,74.90
2018-04-26T03:46:14.831Z,76.80
2018-04-26T03:48:42.378Z,77.10
2018-04-26T03:51:09.981Z,76.80
2018-04-26T03:53:37.579Z,73.00
2018-04-26T03:56:05.184Z,72.60
2018-04-26T03:58:32.807Z,73.40
2018-04-26T04:01:12.097Z,72.90
2018-04-26T04:03:51.412Z,72.60
2018-04-26T04:06:18.974Z,74.00
2018-04-26T04:08:46.559Z,71.90
2018-04-26T04:11:14.145Z,74.20
2018-04-26T04:13:41.732Z,74.30
2018-04-26T04:16:09.479Z,74.20
2018-04-26T04:18:37.078Z,75.10
2018-04-26T04:21:04.647Z,74.80
2018-04-26T04:23:32.231Z,76.10
2018-04-26T04:25:59.828Z,76.30
2018-04-26T04:28:27.459Z,77.20
2018-04-26T04:30:55.078Z,77.80
2018-04-26T04:33:22.666Z,78.80
2018-04-26T04:35:50.243Z,79.40
2018-04-26T04:38:19.028Z,80.20
2018-04-26T04:40:47.379Z,83.10
2018-04-26T04:43:14.952Z,83.00
2018-04-26T04:45:42.558Z,82.20
2018-04-26T04:48:10.936Z,82.70
2018-04-26T04:50:38.503Z,82.70
2018-04-26T04:53:06.063Z,82.30
2018-04-26T04:55:33.632Z,81.40
2018-04-26T04:58:01.203Z,81.10
2018-04-26T05:00:28.799Z,82.50
2018-04-26T05:02:56.375Z,82.60
2018-04-26T05:05:23.979Z,82.90
2018-04-26T05:07:51.566Z,84.10
2018-04-26T05:10:19.951Z,81.80
2018-04-26T05:12:48.415Z,79.60
2018-04-26T05:15:16.035Z,79.60
2018-04-26T05:17:43.608Z,79.40
2018-04-26T05:20:11.204Z,80.20
2018-04-26T05:22:38.772Z,79.80
2018-04-26T05:25:07.117Z,78.90
2018-04-26T05:27:34.762Z,78.80
2018-04-26T05:30:02.394Z,78.30
2018-04-26T05:32:29.899Z,78.10
2018-04-26T05:34:57.463Z,79.00
2018-04-26T05:37:25.035Z,79.20
2018-04-26T05:39:52.620Z,80.40
2018-04-26T05:42:20.217Z,79.70
2018-04-26T05:44:47.786Z,78.60
2018-04-26T05:47:15.410Z,78.70
2018-04-26T05:49:43.006Z,78.80
2018-04-26T05:52:10.548Z,80.00
2018-04-26T05:54:38.163Z,80.70
2018-04-26T05:57:06.541Z,79.20
2018-04-26T05:59:34.917Z,79.40
2018-04-26T06:02:03.253Z,79.60
2018-04-26T06:04:30.860Z,79.60
2018-04-26T06:06:58.434Z,81.00
2018-04-26T06:09:26.034Z,79.50
2018-04-26T06:11:53.668Z,78.80
2018-04-26T06:14:21.256Z,79.10
2018-04-26T06:16:48.904Z,79.20
2018-04-26T06:19:16.441Z,79.00
2018-04-26T06:21:44.040Z,79.20
2018-04-26T06:24:11.635Z,78.80
2018-04-26T06:26:39.972Z,79.40
2018-04-26T06:29:07.595Z,79.40
2018-04-26T06:31:35.148Z,77.80
2018-04-26T06:34:02.720Z,79.70
2018-04-26T06:36:30.310Z,79.90
2018-04-26T06:38:57.863Z,80.10
2018-04-26T06:41:25.429Z,80.00
2018-04-26T06:43:53.035Z,80.40
2018-04-26T06:46:20.628Z,81.80
2018-04-26T06:48:48.243Z,82.30
2018-04-26T06:51:15.851Z,82.00
2018-04-26T06:53:43.407Z,81.80
2018-04-26T06:56:11.024Z,81.40
2018-04-26T06:58:39.368Z,81.20
2018-04-26T07:01:06.918Z,81.20
2018-04-26T07:03:34.496Z,82.10
2018-04-26T07:06:02.079Z,82.40
2018-04-26T07:08:30.400Z,81.20
2018-04-26T07:10:57.980Z,81.10
2018-04-26T07:13:25.552Z,80.90
2018-04-26T07:15:53.108Z,78.70
2018-04-26T07:18:20.720Z,78.00
2018-04-26T07:20:48.322Z,78.30
2018-04-26T07:23:15.894Z,77.90
2018-04-26T07:25:43.487Z,76.90
2018-04-26T07:28:11.094Z,76.00
2018-04-26T07:30:38.722Z,78.30
2018-04-26T07:33:06.269Z,77.80
2018-04-26T07:35:33.911Z,78.00
2018-04-26T07:38:01.498Z,77.90
2018-04-26T07:40:29.053Z,78.90
2018-04-26T07:42:56.669Z,78.60
2018-04-26T07:45:24.423Z,76.80
2018-04-26T07:47:51.977Z,77.80
2018-04-26T07:50:19.571Z,75.20
2018-04-26T07:52:52.052Z,77.10
2018-04-26T07:55:20.416Z,78.80
2018-04-26T07:57:48.010Z,78.80
2018-04-26T08:00:15.590Z,79.90
2018-04-26T08:02:43.141Z,80.20
2018-04-26T08:05:10.763Z,78.90
2018-04-26T08:07:39.090Z,79.10
2018-04-26T08:10:06.655Z,79.10
2018-04-26T08:12:34.256Z,76.90
2018-04-26T08:15:01.892Z,77.40
2018-04-26T08:17:29.462Z,75.10
2018-04-26T08:19:57.033Z,76.90
2018-04-26T08:22:25.423Z,77.50
2018-04-26T08:24:53.080Z,77.40
2018-04-26T08:27:20.604Z,77.50
2018-04-26T08:29:48.244Z,73.10
2018-04-26T08:32:15.817Z,74.20
2018-04-26T08:34:43.433Z,73.10
2018-04-26T08:37:11.044Z,74.40
2018-04-26T08:39:38.615Z,74.80
2018-04-26T08:42:06.236Z,74.00
2018-04-26T08:44:33.835Z,75.20
2018-04-26T08:47:01.442Z,75.30
2018-04-26T08:49:29.013Z,76.30
2018-04-26T08:51:56.556Z,76.00
2018-04-26T08:54:24.206Z,77.50
2018-04-26T08:56:51.826Z,77.50
2018-04-26T08:59:19.795Z,76.80
2018-04-26T09:01:47.402Z,78.50
2018-04-26T09:04:14.984Z,76.90
2018-04-26T09:06:42.651Z,78.00
2018-04-26T09:09:10.224Z,76.70
2018-04-26T09:11:37.792Z,75.80
2018-04-26T09:14:05.403Z,77.40
2018-04-26T09:16:33.010Z,75.90
2018-04-26T09:19:00.595Z,74.70
2018-04-26T09:21:28.238Z,72.50
2018-04-26T09:23:55.807Z,73.60
2018-04-26T09:26:23.382Z,71.70
2018-04-26T09:28:51.758Z,69.30
2018-04-26T09:31:20.126Z,68.50
2018-04-26T09:33:48.479Z,69.70
2018-04-26T09:36:16.071Z,69.60
2018-04-26T09:38:43.673Z,68.60
2018-04-26T09:41:12.031Z,69.50
2018-04-26T09:46:32.827Z,68.70
2018-04-26T09:49:01.203Z,67.60
2018-04-26T09:51:29.580Z,68.50
2018-04-26T09:53:57.935Z,66.70
2018-04-26T09:56:25.523Z,66.60
2018-04-26T09:58:53.123Z,67.40
2018-04-26T10:01:20.707Z,66.40
2018-04-26T10:03:54.355Z,67.00
2018-04-26T10:06:28.366Z,67.60
2018-04-26T10:08:55.978Z,70.00
2018-04-26T10:11:23.562Z,69.20
2018-04-26T10:13:51.181Z,69.80
2018-04-26T10:16:18.787Z,70.40
2018-04-26T10:18:46.411Z,70.60
2018-04-26T10:21:14.001Z,71.10
2018-04-26T10:23:56.803Z,69.30
2018-04-26T10:26:24.350Z,69.30
2018-04-26T10:28:51.907Z,69.60
2018-04-26T10:31:19.679Z,69.80
2018-04-26T10:33:47.286Z,70.40
2018-04-26T10:36:14.906Z,69.90
2018-04-26T10:38:42.454Z,69.80
2018-04-26T10:41:10.004Z,66.60
2018-04-26T10:43:37.766Z,67.10
2018-04-26T10:46:05.322Z,67.20
2018-04-26T10:48:32.863Z,64.60
2018-04-26T10:51:00.432Z,66.10
2018-04-26T10:53:27.991Z,67.00
2018-04-26T10:55:55.603Z,65.90
2018-04-26T10:58:23.195Z,64.30
2018-04-26T11:00:50.735Z,63.90
2018-04-26T11:03:18.335Z,63.50
2018-04-26T11:05:45.887Z,64.60
2018-04-26T11:08:13.496Z,65.90
2018-04-26T11:10:41.127Z,65.30
2018-04-26T11:13:08.748Z,65.10
2018-04-26T11:15:36.518Z,63.30
2018-04-26T11:18:04.091Z,62.70
2018-04-26T11:20:31.639Z,64.90
2018-04-26T11:22:59.219Z,63.90
2018-04-26T11:25:26.805Z,63.40
2018-04-26T11:27:55.110Z,63.10
2018-04-26T11:30:22.727Z,63.10
2018-04-26T11:32:50.319Z,62.40
2018-04-26T11:35:17.939Z,62.20
2018-04-26T11:37:45.495Z,62.90
2018-04-26T11:40:13.135Z,64.00
2018-04-26T11:42:40.695Z,63.00
2018-04-26T11:45:08.286Z,62.60
2018-04-26T11:47:35.860Z,62.70
2018-04-26T11:50:03.443Z,63.30
2018-04-26T11:52:31.048Z,62.40
2018-04-26T11:54:58.619Z,62.10
2018-04-26T11:57:26.215Z,62.10
2018-04-26T11:59:53.911Z,61.20
2018-04-26T12:02:21.458Z,62.10
2018-04-26T12:04:49.000Z,61.00
2018-04-26T12:07:16.560Z,60.90
2018-04-26T12:09:44.167Z,61.30
2018-04-26T12:12:11.727Z,62.40
2018-04-26T12:14:39.275Z,62.10
2018-04-26T12:17:06.839Z,61.10
2018-04-26T12:19:34.383Z,61.60
2018-04-26T12:22:02.005Z,61.10
2018-04-26T12:24:30.335Z,60.80
2018-04-26T12:26:57.893Z,60.80
2018-04-26T12:29:25.548Z,60.20
2018-04-26T12:31:53.072Z,60.80
2018-04-26T12:34:20.642Z,59.60
2018-04-26T12:36:48.226Z,59.30
2018-04-26T12:39:15.843Z,58.40
2018-04-26T12:41:43.401Z,59.70
2018-04-26T12:44:11.028Z,58.60
2018-04-26T12:46:38.599Z,58.80
2018-04-26T12:49:06.186Z,57.50
2018-04-26T12:51:33.757Z,57.20
2018-04-26T12:54:01.295Z,56.80
2018-04-26T12:56:28.827Z,57.90
2018-04-26T12:58:56.446Z,58.60
2018-04-26T13:01:24.471Z,58.00
2018-04-26T13:03:52.072Z,58.80
2018-04-26T13:06:19.664Z,57.50
2018-04-26T13:08:47.255Z,58.90
2018-04-26T13:11:15.583Z,58.20
2018-04-26T13:13:43.132Z,58.20
2018-04-26T13:16:10.752Z,58.80
2018-04-26T13:18:38.326Z,57.10
2018-04-26T13:21:05.939Z,57.70
2018-04-26T13:23:33.571Z,57.50
2018-04-26T13:26:01.151Z,58.20
2018-04-26T13:28:28.686Z,57.80
2018-04-26T13:30:56.271Z,57.40
2018-04-26T13:33:23.852Z,55.40
2018-04-26T13:35:51.435Z,54.90
2018-04-26T13:38:19.047Z,56.00
2018-04-26T13:40:46.647Z,56.40
2018-04-26T13:43:14.993Z,55.20
2018-04-26T13:45:42.602Z,55.20
2018-04-26T13:48:10.177Z,54.80
2018-04-26T13:50:37.715Z,56.20
2018-04-26T13:53:05.302Z,55.90
2018-04-26T13:55:32.889Z,56.00
2018-04-26T13:58:00.471Z,56.00
2018-04-26T14:00:28.075Z,55.80
2018-04-26T14:02:55.691Z,55.20
2018-04-26T14:05:23.579Z,55.00
2018-04-26T14:07:51.147Z,57.50
2018-04-26T14:10:18.756Z,57.20
2018-04-26T14:12:46.351Z,56.50
2018-04-26T14:15:13.959Z,56.30
2018-04-26T14:17:41.558Z,58.30
2018-04-26T14:20:09.492Z,57.50
2018-04-26T14:22:37.077Z,58.60
2018-04-26T14:25:04.632Z,57.70
2018-04-26T14:27:32.235Z,59.10
2018-04-26T14:29:59.787Z,59.10
2018-04-26T14:32:27.379Z,58.50
2018-04-26T14:34:54.990Z,57.60
2018-04-26T14:37:22.578Z,57.50
2018-04-26T14:39:50.131Z,58.00
2018-04-26T14:42:17.752Z,57.30
2018-04-26T14:44:45.351Z,57.20
2018-04-26T14:47:12.923Z,57.10
2018-04-26T14:49:40.529Z,56.30
2018-04-26T14:52:08.113Z,56.30
2018-04-26T14:54:35.676Z,56.40
2018-04-26T14:57:03.295Z,57.00
2018-04-26T14:59:30.832Z,55.00
2018-04-26T15:01:58.384Z,54.40
2018-04-26T15:04:25.950Z,55.10
2018-04-26T15:06:53.572Z,54.80
2018-04-26T15:09:21.190Z,55.40
2018-04-26T15:11:48.787Z,54.50
2018-04-26T15:14:16.399Z,54.20
2018-04-26T15:16:43.955Z,52.90
2018-04-26T15:19:11.535Z,53.90
2018-04-26T15:21:39.241Z,55.10
2018-04-26T15:24:06.736Z,53.80
2018-04-26T15:26:34.277Z,53.60
2018-04-26T15:29:01.921Z,54.70
2018-04-26T15:31:30.270Z,53.60
2018-04-26T15:33:57.851Z,53.60
2018-04-26T15:36:25.459Z,54.10
2018-04-26T15:38:53.087Z,54.00
2018-04-26T15:41:20.575Z,55.00
2018-04-26T15:43:48.163Z,54.60
2018-04-26T15:46:16.543Z,53.80
2018-04-26T15:48:44.119Z,53.80
2018-04-26T15:51:11.707Z,54.20
2018-04-26T15:53:51.074Z,53.60
2018-04-26T15:56:24.483Z,53.20
2018-04-26T15:59:16.676Z,53.70
2018-04-26T16:02:19.587Z,54.00
2018-04-26T16:04:59.027Z,54.30
2018-04-26T16:07:53.977Z,53.60
2018-04-26T16:10:39.031Z,53.50
2018-04-26T16:13:24.243Z,55.00
2018-04-26T16:16:09.304Z,55.40
2018-04-26T16:18:48.754Z,53.30
2018-04-26T16:21:34.023Z,53.20
2018-04-26T16:24:18.966Z,54.00
2018-04-26T16:27:04.028Z,53.50
2018-04-26T16:29:43.495Z,54.20
2018-04-26T16:32:28.506Z,53.60
2018-04-26T16:35:13.600Z,53.20
2018-04-26T16:37:58.406Z,53.60
2018-04-26T16:40:25.994Z,54.30
2018-04-26T16:42:53.598Z,53.70
2018-04-26T16:45:21.168Z,55.30
2018-04-26T16:47:48.762Z,56.30
2018-04-26T16:50:16.307Z,55.70
2018-04-26T16:52:43.931Z,55.90
2018-04-26T16:55:12.057Z,56.30
2018-04-26T16:57:39.644Z,56.60
2018-04-26T17:00:07.203Z,57.50
2018-04-26T17:02:34.783Z,58.20
2018-04-26T17:05:02.461Z,58.40
2018-04-26T17:07:30.027Z,58.80
2018-04-26T17:09:57.596Z,58.80
2018-04-26T17:12:25.216Z,58.50
2018-04-26T17:14:52.798Z,58.90
2018-04-26T17:17:20.351Z,59.20
2018-04-26T17:19:47.949Z,60.40
2018-04-26T17:22:15.547Z,61.50
2018-04-26T17:24:43.114Z,61.90
2018-04-26T17:27:10.675Z,62.50
2018-04-26T17:29:38.244Z,62.70
2018-04-26T17:32:05.848Z,63.00
2018-04-26T17:34:33.415Z,63.30
2018-04-26T17:37:00.974Z,63.60
2018-04-26T17:39:28.555Z,63.70
2018-04-26T17:42:05.734Z,64.20
2018-04-26T17:44:33.343Z,64.40
2018-04-26T17:47:00.931Z,64.50
2018-04-26T17:49:28.507Z,64.80
2018-04-26T17:51:56.120Z,64.40
2018-04-26T17:54:23.715Z,65.10
2018-04-26T17:56:51.319Z,65.90
2018-04-26T17:59:18.882Z,67.70
2018-04-26T18:01:46.456Z,69.50
2018-04-26T18:04:14.059Z,70.20
2018-04-26T18:06:41.679Z,71.50
2018-04-26T18:09:09.245Z,72.10
2018-04-26T18:11:36.832Z,72.80
2018-04-26T18:14:04.444Z,72.80
2018-04-26T18:16:32.015Z,72.80
2018-04-26T18:18:59.643Z,72.90
2018-04-26T18:21:27.191Z,73.90
2018-04-26T18:23:54.807Z,74.80
2018-04-26T18:26:22.367Z,74.70
2018-04-26T18:28:49.946Z,75.00
2018-04-26T18:31:17.535Z,75.70
2018-04-26T18:33:45.126Z,75.80
2018-04-26T18:36:12.667Z,75.60
2018-04-26T18:38:40.249Z,75.50
2018-04-26T18:41:07.814Z,74.90
2018-04-26T18:43:35.410Z,74.40
2018-04-26T18:46:03.732Z,75.60
2018-04-26T18:48:31.302Z,75.50
2018-04-26T18:50:58.992Z,75.20
2018-04-26T18:53:26.527Z,75.20
2018-04-26T18:55:54.082Z,76.00
2018-04-26T18:58:21.688Z,75.70
2018-04-26T19:00:50.003Z,75.70
2018-04-26T19:03:17.579Z,75.60
2018-04-26T19:05:45.175Z,75.70
2018-04-26T19:08:12.755Z,76.00
2018-04-26T19:10:40.356Z,75.20
2018-04-26T19:13:07.974Z,75.70
2018-04-26T19:15:36.285Z,75.60
2018-04-26T19:18:03.916Z,75.60
2018-04-26T19:20:31.464Z,75.20
2018-04-26T19:23:04.002Z,75.10
2018-04-26T19:25:31.575Z,75.40
2018-04-26T19:27:59.139Z,76.00
2018-04-26T19:30:26.740Z,76.00
2018-04-26T19:32:54.308Z,76.60
2018-04-26T19:35:21.891Z,77.10
2018-04-26T19:37:49.499Z,77.70
2018-04-26T19:40:17.059Z,77.90
2018-04-26T19:42:45.395Z,78.40
2018-04-26T19:45:13.207Z,78.30
2018-04-26T19:47:40.796Z,78.40
2018-04-26T19:50:08.354Z,78.40
2018-04-26T19:52:36.701Z,78.60
2018-04-26T19:55:04.278Z,78.50
2018-04-26T19:57:31.870Z,78.80
2018-04-26T19:59:59.431Z,79.50
2018-04-26T20:02:26.978Z,80.10
2018-04-26T20:04:54.558Z,80.30
2018-04-26T20:07:22.146Z,80.30
2018-04-26T20:09:50.505Z,79.90
2018-04-26T20:12:18.126Z,79.80
2018-04-26T20:14:45.724Z,79.60
2018-04-26T20:17:13.321Z,79.30
2018-04-26T20:19:40.876Z,79.30
2018-04-26T20:22:08.487Z,79.60
2018-04-26T20:24:36.042Z,80.00
2018-04-26T20:27:03.679Z,79.90
2018-04-26T20:29:31.262Z,80.00
2018-04-26T20:31:58.856Z,80.50
2018-04-26T20:34:26.466Z,80.70
2018-04-26T20:36:54.049Z,81.10
2018-04-26T20:39:21.631Z,81.20
2018-04-26T20:41:54.995Z,82.50
2018-04-26T20:44:34.322Z,82.30
2018-04-26T20:47:01.896Z,82.90
2018-04-26T20:49:29.456Z,82.90
2018-04-26T20:51:57.018Z,83.30
2018-04-26T20:54:24.626Z,82.90
2018-04-26T20:56:52.221Z,82.30
2018-04-26T20:59:19.803Z,81.80
2018-04-26T21:01:47.372Z,82.00
2018-04-26T21:04:14.919Z,82.70
2018-04-26T21:06:42.516Z,82.90
2018-04-26T21:09:10.130Z,83.30
2018-04-26T21:11:37.766Z,83.10
2018-04-26T21:14:05.391Z,82.60
2018-04-26T21:16:32.895Z,82.50
2018-04-26T21:19:00.461Z,82.10
2018-04-26T21:21:28.003Z,81.90
2018-04-26T21:23:55.540Z,81.80
2018-04-26T21:26:23.146Z,81.60
2018-04-26T21:28:50.735Z,82.30
2018-04-26T21:31:19.038Z,82.40
2018-04-26T21:33:46.610Z,82.30
2018-04-26T21:36:14.239Z,82.00
2018-04-26T21:38:42.602Z,82.50
2018-04-26T21:41:10.177Z,82.40
2018-04-26T21:43:47.580Z,82.80
2018-04-26T21:46:15.162Z,82.30
2018-04-26T21:48:42.739Z,81.90
2018-04-26T21:51:15.910Z,82.20
2018-04-26T21:53:49.383Z,82.30
2018-04-26T21:56:22.562Z,82.90
2018-04-26T21:58:55.833Z,83.30
2018-04-26T22:01:29.064Z,83.50
2018-04-26T22:04:02.211Z,83.30
2018-04-26T22:06:29.798Z,83.00
2018-04-26T22:08:58.163Z,83.10
2018-04-26T22:11:26.522Z,83.10
2018-04-26T22:13:54.271Z,83.10
2018-04-26T22:16:21.812Z,83.00
2018-04-26T22:18:49.348Z,83.90
2018-04-26T22:21:16.953Z,84.10
2018-04-26T22:23:49.588Z,84.10
2018-04-26T22:26:17.179Z,83.50
2018-04-26T22:28:44.762Z,83.70
2018-04-26T22:31:12.359Z,84.40
2018-04-26T22:33:40.690Z,84.10
2018-04-26T22:36:08.259Z,84.00
2018-04-26T22:38:35.856Z,84.70
2018-04-26T22:41:03.415Z,84.70
2018-04-26T22:43:31.123Z,85.10
2018-04-26T22:45:58.715Z,85.50
2018-04-26T22:48:26.245Z,86.00
2018-04-26T22:50:53.795Z,86.60
2018-04-26T22:53:21.398Z,85.90
2018-04-26T22:55:49.001Z,90.30
2018-04-26T22:58:16.561Z,96.60
2018-04-26T23:00:44.134Z,95.20
2018-04-26T23:03:11.706Z,95.30
2018-04-26T23:05:39.259Z,94.90
2018-04-26T23:08:06.850Z,90.70
2018-04-26T23:10:35.150Z,93.60
2018-04-26T23:13:02.711Z,94.10
2018-04-26T23:15:30.321Z,94.90
2018-04-26T23:17:57.908Z,96.90
2018-04-26T23:20:25.515Z,99.40
2018-04-26T23:22:53.095Z,88.80
2018-04-26T23:25:20.767Z,88.70
2018-04-26T23:27:48.254Z,88.70
2018-04-26T23:30:15.815Z,88.70
2018-04-26T23:32:43.410Z,88.60
2018-04-26T23:35:10.971Z,88.80
2018-04-26T23:37:38.514Z,89.20
2018-04-26T23:40:06.050Z,91.00
2018-04-26T23:42:33.610Z,91.30
2018-04-26T23:45:01.954Z,90.80
2018-04-26T23:47:29.527Z,90.90
2018-04-26T23:49:57.143Z,91.20
2018-04-26T23:52:24.775Z,91.50
2018-04-26T23:54:52.363Z,91.80
2018-04-26T23:57:19.911Z,91.40
2018-04-26T23:59:47.480Z,91.10
